sensor_id;sensor_type;location;lat;lon;timestamp;P1;durP1;ratioP1;P2;durP2;ratioP2
66118;SDS011;52912;48.564;9.302;2024-01-30T00:00:50;11.93;;;6.00;;
66118;SDS011;52912;48.564;9.302;2024-01-30T00:03:15;12.00;;;6.72;;
66118;SDS011;52912;48.564;9.302;2024-01-30T00:05:42;10.75;;;6.03;;
66118;SDS011;52912;48.564;9.302;2024-01-30T00:08:08;10.48;;;5.78;;
66118;SDS011;52912;48.564;9.302;2024-01-30T00:10:33;13.85;;;6.97;;
66118;SDS011;52912;48.564;9.302;2024-01-30T00:12:58;10.40;;;6.78;;
66118;SDS011;52912;48.564;9.302;2024-01-30T00:15:24;11.80;;;5.90;;
66118;SDS011;52912;48.564;9.302;2024-01-30T00:17:49;10.02;;;5.80;;
66118;SDS011;52912;48.564;9.302;2024-01-30T00:20:15;10.52;;;6.03;;
66118;SDS011;52912;48.564;9.302;2024-01-30T00:22:42;10.95;;;6.38;;
66118;SDS011;52912;48.564;9.302;2024-01-30T00:25:07;8.25;;;5.53;;
66118;SDS011;52912;48.564;9.302;2024-01-30T00:27:33;9.07;;;5.68;;
66118;SDS011;52912;48.564;9.302;2024-01-30T00:29:58;8.82;;;5.88;;
66118;SDS011;52912;48.564;9.302;2024-01-30T00:32:24;9.80;;;5.95;;
66118;SDS011;52912;48.564;9.302;2024-01-30T00:34:49;10.85;;;6.22;;
66118;SDS011;52912;48.564;9.302;2024-01-30T00:37:15;11.23;;;6.22;;
66118;SDS011;52912;48.564;9.302;2024-01-30T00:39:41;11.57;;;6.18;;
66118;SDS011;52912;48.564;9.302;2024-01-30T00:42:07;12.77;;;6.22;;
66118;SDS011;52912;48.564;9.302;2024-01-30T00:44:34;9.32;;;5.65;;
66118;SDS011;52912;48.564;9.302;2024-01-30T00:47:00;9.57;;;5.32;;
66118;SDS011;52912;48.564;9.302;2024-01-30T00:49:25;10.52;;;5.68;;
66118;SDS011;52912;48.564;9.302;2024-01-30T00:51:50;10.75;;;5.65;;
66118;SDS011;52912;48.564;9.302;2024-01-30T00:54:16;9.27;;;5.15;;
66118;SDS011;52912;48.564;9.302;2024-01-30T00:56:43;9.90;;;5.47;;
66118;SDS011;52912;48.564;9.302;2024-01-30T00:59:08;8.27;;;5.60;;
66118;SDS011;52912;48.564;9.302;2024-01-30T01:01:34;10.05;;;5.97;;
66118;SDS011;52912;48.564;9.302;2024-01-30T01:03:59;9.63;;;6.20;;
66118;SDS011;52912;48.564;9.302;2024-01-30T01:06:24;10.18;;;6.07;;
66118;SDS011;52912;48.564;9.302;2024-01-30T01:08:50;11.85;;;6.60;;
66118;SDS011;52912;48.564;9.302;2024-01-30T01:11:15;11.40;;;5.90;;
66118;SDS011;52912;48.564;9.302;2024-01-30T01:13:42;10.52;;;6.03;;
66118;SDS011;52912;48.564;9.302;2024-01-30T01:16:07;11.82;;;5.95;;
66118;SDS011;52912;48.564;9.302;2024-01-30T01:18:33;8.82;;;5.97;;
66118;SDS011;52912;48.564;9.302;2024-01-30T01:20:58;9.68;;;6.07;;
66118;SDS011;52912;48.564;9.302;2024-01-30T01:23:24;10.10;;;6.03;;
66118;SDS011;52912;48.564;9.302;2024-01-30T01:25:49;9.18;;;5.45;;
66118;SDS011;52912;48.564;9.302;2024-01-30T01:28:15;10.35;;;6.10;;
66118;SDS011;52912;48.564;9.302;2024-01-30T01:30:41;11.20;;;6.25;;
66118;SDS011;52912;48.564;9.302;2024-01-30T01:33:07;9.50;;;5.50;;
66118;SDS011;52912;48.564;9.302;2024-01-30T01:35:32;10.65;;;5.80;;
66118;SDS011;52912;48.564;9.302;2024-01-30T01:37:58;9.32;;;5.90;;
66118;SDS011;52912;48.564;9.302;2024-01-30T01:40:23;8.13;;;5.25;;
66118;SDS011;52912;48.564;9.302;2024-01-30T01:42:49;9.77;;;5.65;;
66118;SDS011;52912;48.564;9.302;2024-01-30T01:45:15;9.65;;;5.32;;
66118;SDS011;52912;48.564;9.302;2024-01-30T01:47:42;9.18;;;5.55;;
66118;SDS011;52912;48.564;9.302;2024-01-30T01:50:08;11.85;;;6.47;;
66118;SDS011;52912;48.564;9.302;2024-01-30T01:52:34;13.20;;;8.55;;
66118;SDS011;52912;48.564;9.302;2024-01-30T01:55:01;8.80;;;5.35;;
66118;SDS011;52912;48.564;9.302;2024-01-30T01:57:26;8.63;;;5.30;;
66118;SDS011;52912;48.564;9.302;2024-01-30T01:59:52;7.70;;;4.82;;
66118;SDS011;52912;48.564;9.302;2024-01-30T02:02:17;9.57;;;5.18;;
66118;SDS011;52912;48.564;9.302;2024-01-30T02:04:45;8.32;;;4.90;;
66118;SDS011;52912;48.564;9.302;2024-01-30T02:07:11;8.85;;;5.10;;
66118;SDS011;52912;48.564;9.302;2024-01-30T02:09:36;9.30;;;4.68;;
66118;SDS011;52912;48.564;9.302;2024-01-30T02:12:02;10.48;;;5.55;;
66118;SDS011;52912;48.564;9.302;2024-01-30T02:14:27;9.90;;;5.53;;
66118;SDS011;52912;48.564;9.302;2024-01-30T02:16:53;9.20;;;5.40;;
66118;SDS011;52912;48.564;9.302;2024-01-30T02:19:18;10.52;;;5.68;;
66118;SDS011;52912;48.564;9.302;2024-01-30T02:21:45;11.82;;;6.25;;
66118;SDS011;52912;48.564;9.302;2024-01-30T02:24:11;10.80;;;6.15;;
66118;SDS011;52912;48.564;9.302;2024-01-30T02:26:37;11.70;;;6.35;;
66118;SDS011;52912;48.564;9.302;2024-01-30T02:29:02;11.32;;;5.97;;
66118;SDS011;52912;48.564;9.302;2024-01-30T02:31:27;9.93;;;5.72;;
66118;SDS011;52912;48.564;9.302;2024-01-30T02:33:53;8.82;;;5.47;;
66118;SDS011;52912;48.564;9.302;2024-01-30T02:36:18;9.70;;;5.78;;
66118;SDS011;52912;48.564;9.302;2024-01-30T02:38:45;8.90;;;5.57;;
66118;SDS011;52912;48.564;9.302;2024-01-30T02:41:11;11.30;;;5.72;;
66118;SDS011;52912;48.564;9.302;2024-01-30T02:43:36;9.98;;;5.78;;
66118;SDS011;52912;48.564;9.302;2024-01-30T02:46:01;9.63;;;5.97;;
66118;SDS011;52912;48.564;9.302;2024-01-30T02:48:27;9.32;;;5.45;;
66118;SDS011;52912;48.564;9.302;2024-01-30T02:50:52;8.55;;;5.30;;
66118;SDS011;52912;48.564;9.302;2024-01-30T02:53:18;9.77;;;5.75;;
66118;SDS011;52912;48.564;9.302;2024-01-30T02:55:45;9.48;;;5.65;;
66118;SDS011;52912;48.564;9.302;2024-01-30T02:58:10;8.38;;;5.63;;
66118;SDS011;52912;48.564;9.302;2024-01-30T03:00:35;9.73;;;6.03;;
66118;SDS011;52912;48.564;9.302;2024-01-30T03:03:01;10.63;;;6.05;;
66118;SDS011;52912;48.564;9.302;2024-01-30T03:05:26;10.15;;;5.53;;
66118;SDS011;52912;48.564;9.302;2024-01-30T03:07:52;9.60;;;5.60;;
66118;SDS011;52912;48.564;9.302;2024-01-30T03:10:17;10.52;;;5.45;;
66118;SDS011;52912;48.564;9.302;2024-01-30T03:12:44;9.85;;;5.15;;
66118;SDS011;52912;48.564;9.302;2024-01-30T03:15:10;10.13;;;6.00;;
66118;SDS011;52912;48.564;9.302;2024-01-30T03:17:35;9.57;;;5.70;;
66118;SDS011;52912;48.564;9.302;2024-01-30T03:20:00;11.43;;;5.47;;
66118;SDS011;52912;48.564;9.302;2024-01-30T03:22:26;12.82;;;6.85;;
66118;SDS011;52912;48.564;9.302;2024-01-30T03:24:51;9.70;;;5.97;;
66118;SDS011;52912;48.564;9.302;2024-01-30T03:27:17;8.82;;;5.45;;
66118;SDS011;52912;48.564;9.302;2024-01-30T03:29:43;9.25;;;5.78;;
66118;SDS011;52912;48.564;9.302;2024-01-30T03:32:09;9.13;;;5.80;;
66118;SDS011;52912;48.564;9.302;2024-01-30T03:34:34;9.68;;;6.03;;
66118;SDS011;52912;48.564;9.302;2024-01-30T03:37:00;9.02;;;5.70;;
66118;SDS011;52912;48.564;9.302;2024-01-30T03:39:25;9.40;;;5.55;;
66118;SDS011;52912;48.564;9.302;2024-01-30T03:41:51;9.20;;;5.55;;
66118;SDS011;52912;48.564;9.302;2024-01-30T03:44:16;11.00;;;5.78;;
66118;SDS011;52912;48.564;9.302;2024-01-30T03:46:43;8.63;;;5.63;;
66118;SDS011;52912;48.564;9.302;2024-01-30T03:49:09;11.88;;;7.00;;
66118;SDS011;52912;48.564;9.302;2024-01-30T03:51:35;10.93;;;6.53;;
66118;SDS011;52912;48.564;9.302;2024-01-30T03:54:00;10.20;;;5.65;;
66118;SDS011;52912;48.564;9.302;2024-01-30T03:56:26;9.70;;;6.32;;
66118;SDS011;52912;48.564;9.302;2024-01-30T03:58:51;11.50;;;6.15;;
66118;SDS011;52912;48.564;9.302;2024-01-30T04:01:16;11.15;;;6.63;;
66118;SDS011;52912;48.564;9.302;2024-01-30T04:03:43;12.63;;;6.30;;
66118;SDS011;52912;48.564;9.302;2024-01-30T04:06:09;12.95;;;6.45;;
66118;SDS011;52912;48.564;9.302;2024-01-30T04:08:34;10.98;;;6.28;;
66118;SDS011;52912;48.564;9.302;2024-01-30T04:11:02;10.15;;;6.03;;
66118;SDS011;52912;48.564;9.302;2024-01-30T04:13:28;10.20;;;6.45;;
66118;SDS011;52912;48.564;9.302;2024-01-30T04:15:54;9.63;;;5.75;;
66118;SDS011;52912;48.564;9.302;2024-01-30T04:18:19;11.32;;;6.20;;
66118;SDS011;52912;48.564;9.302;2024-01-30T04:20:46;10.85;;;5.70;;
66118;SDS011;52912;48.564;9.302;2024-01-30T04:23:11;10.43;;;5.85;;
66118;SDS011;52912;48.564;9.302;2024-01-30T04:25:37;9.88;;;5.57;;
66118;SDS011;52912;48.564;9.302;2024-01-30T04:28:02;10.77;;;5.88;;
66118;SDS011;52912;48.564;9.302;2024-01-30T04:30:28;8.60;;;5.45;;
66118;SDS011;52912;48.564;9.302;2024-01-30T04:32:54;8.40;;;4.97;;
66118;SDS011;52912;48.564;9.302;2024-01-30T04:35:19;9.65;;;5.35;;
66118;SDS011;52912;48.564;9.302;2024-01-30T04:37:46;11.13;;;5.60;;
66118;SDS011;52912;48.564;9.302;2024-01-30T04:40:11;10.00;;;5.68;;
66118;SDS011;52912;48.564;9.302;2024-01-30T04:42:37;8.65;;;5.30;;
66118;SDS011;52912;48.564;9.302;2024-01-30T04:45:03;9.75;;;5.85;;
66118;SDS011;52912;48.564;9.302;2024-01-30T04:47:29;9.48;;;5.32;;
66118;SDS011;52912;48.564;9.302;2024-01-30T04:49:54;10.23;;;5.70;;
66118;SDS011;52912;48.564;9.302;2024-01-30T04:52:19;10.68;;;5.28;;
66118;SDS011;52912;48.564;9.302;2024-01-30T04:54:46;9.52;;;5.30;;
66118;SDS011;52912;48.564;9.302;2024-01-30T04:57:12;8.63;;;5.25;;
66118;SDS011;52912;48.564;9.302;2024-01-30T04:59:37;7.50;;;4.90;;
66118;SDS011;52912;48.564;9.302;2024-01-30T05:02:03;7.68;;;5.00;;
66118;SDS011;52912;48.564;9.302;2024-01-30T05:04:28;8.80;;;5.40;;
66118;SDS011;52912;48.564;9.302;2024-01-30T05:06:54;8.93;;;5.72;;
66118;SDS011;52912;48.564;9.302;2024-01-30T05:09:19;10.82;;;6.10;;
66118;SDS011;52912;48.564;9.302;2024-01-30T05:11:46;10.95;;;5.60;;
66118;SDS011;52912;48.564;9.302;2024-01-30T05:14:11;10.63;;;5.15;;
66118;SDS011;52912;48.564;9.302;2024-01-30T05:16:37;9.57;;;5.95;;
66118;SDS011;52912;48.564;9.302;2024-01-30T05:19:02;9.80;;;5.68;;
66118;SDS011;52912;48.564;9.302;2024-01-30T05:21:28;8.85;;;5.43;;
66118;SDS011;52912;48.564;9.302;2024-01-30T05:23:53;9.43;;;5.43;;
66118;SDS011;52912;48.564;9.302;2024-01-30T05:26:19;8.13;;;4.93;;
66118;SDS011;52912;48.564;9.302;2024-01-30T05:28:46;10.13;;;6.00;;
66118;SDS011;52912;48.564;9.302;2024-01-30T05:31:11;11.32;;;6.38;;
66118;SDS011;52912;48.564;9.302;2024-01-30T05:33:37;8.63;;;5.75;;
66118;SDS011;52912;48.564;9.302;2024-01-30T05:36:02;10.18;;;5.70;;
66118;SDS011;52912;48.564;9.302;2024-01-30T05:38:29;10.90;;;6.18;;
66118;SDS011;52912;48.564;9.302;2024-01-30T05:40:54;10.57;;;5.88;;
66118;SDS011;52912;48.564;9.302;2024-01-30T05:43:20;15.98;;;6.82;;
66118;SDS011;52912;48.564;9.302;2024-01-30T05:45:47;10.98;;;5.75;;
66118;SDS011;52912;48.564;9.302;2024-01-30T05:48:12;10.70;;;5.57;;
66118;SDS011;52912;48.564;9.302;2024-01-30T05:50:37;10.90;;;5.38;;
66118;SDS011;52912;48.564;9.302;2024-01-30T05:53:03;9.25;;;5.35;;
66118;SDS011;52912;48.564;9.302;2024-01-30T05:55:29;10.88;;;6.13;;
66118;SDS011;52912;48.564;9.302;2024-01-30T05:57:54;10.05;;;6.10;;
66118;SDS011;52912;48.564;9.302;2024-01-30T06:00:19;11.27;;;5.88;;
66118;SDS011;52912;48.564;9.302;2024-01-30T06:02:46;12.18;;;5.50;;
66118;SDS011;52912;48.564;9.302;2024-01-30T06:05:12;11.82;;;6.00;;
66118;SDS011;52912;48.564;9.302;2024-01-30T06:07:37;9.82;;;6.05;;
66118;SDS011;52912;48.564;9.302;2024-01-30T06:10:03;9.80;;;5.43;;
66118;SDS011;52912;48.564;9.302;2024-01-30T06:12:29;11.15;;;5.78;;
66118;SDS011;52912;48.564;9.302;2024-01-30T06:14:55;9.77;;;5.95;;
66118;SDS011;52912;48.564;9.302;2024-01-30T06:17:20;11.05;;;5.35;;
66118;SDS011;52912;48.564;9.302;2024-01-30T06:19:47;10.10;;;5.28;;
66118;SDS011;52912;48.564;9.302;2024-01-30T06:22:13;10.60;;;6.38;;
66118;SDS011;52912;48.564;9.302;2024-01-30T06:24:38;10.02;;;6.00;;
66118;SDS011;52912;48.564;9.302;2024-01-30T06:27:04;12.77;;;5.72;;
66118;SDS011;52912;48.564;9.302;2024-01-30T06:29:29;9.13;;;5.57;;
66118;SDS011;52912;48.564;9.302;2024-01-30T06:31:55;9.73;;;6.05;;
66118;SDS011;52912;48.564;9.302;2024-01-30T06:34:21;9.98;;;5.80;;
66118;SDS011;52912;48.564;9.302;2024-01-30T06:36:48;10.88;;;5.30;;
66118;SDS011;52912;48.564;9.302;2024-01-30T06:39:14;10.07;;;5.72;;
66118;SDS011;52912;48.564;9.302;2024-01-30T06:41:39;8.80;;;5.50;;
66118;SDS011;52912;48.564;9.302;2024-01-30T06:44:05;9.95;;;5.68;;
66118;SDS011;52912;48.564;9.302;2024-01-30T06:46:30;12.27;;;6.28;;
66118;SDS011;52912;48.564;9.302;2024-01-30T06:48:56;9.52;;;5.78;;
66118;SDS011;52912;48.564;9.302;2024-01-30T06:51:21;10.43;;;5.82;;
66118;SDS011;52912;48.564;9.302;2024-01-30T06:53:48;11.57;;;6.40;;
66118;SDS011;52912;48.564;9.302;2024-01-30T06:56:13;10.13;;;5.90;;
66118;SDS011;52912;48.564;9.302;2024-01-30T06:58:39;9.90;;;6.18;;
66118;SDS011;52912;48.564;9.302;2024-01-30T07:01:04;15.05;;;5.78;;
66118;SDS011;52912;48.564;9.302;2024-01-30T07:03:30;11.07;;;6.40;;
66118;SDS011;52912;48.564;9.302;2024-01-30T07:05:55;16.02;;;6.50;;
66118;SDS011;52912;48.564;9.302;2024-01-30T07:08:21;11.13;;;6.47;;
66118;SDS011;52912;48.564;9.302;2024-01-30T07:10:47;9.77;;;6.13;;
66118;SDS011;52912;48.564;9.302;2024-01-30T07:13:13;12.98;;;6.47;;
66118;SDS011;52912;48.564;9.302;2024-01-30T07:15:38;11.20;;;6.20;;
66118;SDS011;52912;48.564;9.302;2024-01-30T07:18:05;9.27;;;5.60;;
66118;SDS011;52912;48.564;9.302;2024-01-30T07:20:31;10.40;;;5.80;;
66118;SDS011;52912;48.564;9.302;2024-01-30T07:22:56;7.38;;;5.15;;
66118;SDS011;52912;48.564;9.302;2024-01-30T07:25:22;9.57;;;5.72;;
66118;SDS011;52912;48.564;9.302;2024-01-30T07:27:49;14.13;;;5.95;;
66118;SDS011;52912;48.564;9.302;2024-01-30T07:30:15;14.98;;;5.90;;
66118;SDS011;52912;48.564;9.302;2024-01-30T07:32:40;12.77;;;7.47;;
66118;SDS011;52912;48.564;9.302;2024-01-30T07:35:06;9.85;;;6.50;;
66118;SDS011;52912;48.564;9.302;2024-01-30T07:37:32;11.88;;;7.32;;
66118;SDS011;52912;48.564;9.302;2024-01-30T07:39:57;17.58;;;6.50;;
66118;SDS011;52912;48.564;9.302;2024-01-30T07:42:22;13.90;;;6.45;;
66118;SDS011;52912;48.564;9.302;2024-01-30T07:44:49;12.38;;;6.50;;
66118;SDS011;52912;48.564;9.302;2024-01-30T07:47:15;11.75;;;6.57;;
66118;SDS011;52912;48.564;9.302;2024-01-30T07:49:40;10.45;;;6.78;;
66118;SDS011;52912;48.564;9.302;2024-01-30T07:52:05;12.57;;;6.22;;
66118;SDS011;52912;48.564;9.302;2024-01-30T07:54:31;12.90;;;7.00;;
66118;SDS011;52912;48.564;9.302;2024-01-30T07:56:56;13.50;;;6.65;;
66118;SDS011;52912;48.564;9.302;2024-01-30T07:59:22;14.65;;;7.13;;
66118;SDS011;52912;48.564;9.302;2024-01-30T08:01:49;11.10;;;6.30;;
66118;SDS011;52912;48.564;9.302;2024-01-30T08:04:14;12.07;;;7.65;;
66118;SDS011;52912;48.564;9.302;2024-01-30T08:06:39;14.85;;;8.10;;
66118;SDS011;52912;48.564;9.302;2024-01-30T08:09:05;13.88;;;7.53;;
66118;SDS011;52912;48.564;9.302;2024-01-30T08:11:30;12.38;;;7.35;;
66118;SDS011;52912;48.564;9.302;2024-01-30T08:13:56;9.15;;;5.97;;
66118;SDS011;52912;48.564;9.302;2024-01-30T08:16:21;11.90;;;6.55;;
66118;SDS011;52912;48.564;9.302;2024-01-30T08:18:48;9.10;;;5.97;;
66118;SDS011;52912;48.564;9.302;2024-01-30T08:21:13;10.63;;;6.18;;
66118;SDS011;52912;48.564;9.302;2024-01-30T08:23:39;10.15;;;6.32;;
66118;SDS011;52912;48.564;9.302;2024-01-30T08:26:04;10.07;;;6.25;;
66118;SDS011;52912;48.564;9.302;2024-01-30T08:28:30;9.98;;;5.85;;
66118;SDS011;52912;48.564;9.302;2024-01-30T08:30:55;13.00;;;6.40;;
66118;SDS011;52912;48.564;9.302;2024-01-30T08:33:21;12.70;;;6.18;;
66118;SDS011;52912;48.564;9.302;2024-01-30T08:35:48;12.95;;;6.68;;
66118;SDS011;52912;48.564;9.302;2024-01-30T08:38:13;12.07;;;5.78;;
66118;SDS011;52912;48.564;9.302;2024-01-30T08:40:39;14.70;;;6.18;;
66118;SDS011;52912;48.564;9.302;2024-01-30T08:43:04;11.90;;;6.30;;
66118;SDS011;52912;48.564;9.302;2024-01-30T08:45:29;10.25;;;5.90;;
66118;SDS011;52912;48.564;9.302;2024-01-30T08:47:55;15.68;;;6.45;;
66118;SDS011;52912;48.564;9.302;2024-01-30T08:50:20;15.60;;;6.93;;
66118;SDS011;52912;48.564;9.302;2024-01-30T08:52:47;12.65;;;6.45;;
66118;SDS011;52912;48.564;9.302;2024-01-30T08:55:13;12.30;;;6.82;;
66118;SDS011;52912;48.564;9.302;2024-01-30T08:57:38;12.60;;;6.72;;
66118;SDS011;52912;48.564;9.302;2024-01-30T09:00:04;12.18;;;7.47;;
66118;SDS011;52912;48.564;9.302;2024-01-30T09:02:30;13.43;;;7.15;;
66118;SDS011;52912;48.564;9.302;2024-01-30T09:04:56;13.38;;;7.40;;
66118;SDS011;52912;48.564;9.302;2024-01-30T09:07:21;13.20;;;7.10;;
66118;SDS011;52912;48.564;9.302;2024-01-30T09:09:48;13.07;;;7.05;;
66118;SDS011;52912;48.564;9.302;2024-01-30T09:12:13;11.55;;;6.95;;
66118;SDS011;52912;48.564;9.302;2024-01-30T09:14:39;11.70;;;6.63;;
66118;SDS011;52912;48.564;9.302;2024-01-30T09:17:05;12.95;;;6.15;;
66118;SDS011;52912;48.564;9.302;2024-01-30T09:19:30;11.52;;;6.78;;
66118;SDS011;52912;48.564;9.302;2024-01-30T09:21:56;12.25;;;7.18;;
66118;SDS011;52912;48.564;9.302;2024-01-30T09:24:21;13.93;;;7.20;;
66118;SDS011;52912;48.564;9.302;2024-01-30T09:26:48;10.35;;;6.47;;
66118;SDS011;52912;48.564;9.302;2024-01-30T09:29:13;12.30;;;6.18;;
66118;SDS011;52912;48.564;9.302;2024-01-30T09:31:39;14.10;;;7.35;;
66118;SDS011;52912;48.564;9.302;2024-01-30T09:34:04;11.90;;;6.38;;
66118;SDS011;52912;48.564;9.302;2024-01-30T09:36:30;13.25;;;6.95;;
66118;SDS011;52912;48.564;9.302;2024-01-30T09:38:56;16.40;;;7.57;;
66118;SDS011;52912;48.564;9.302;2024-01-30T09:41:22;16.05;;;7.88;;
66118;SDS011;52912;48.564;9.302;2024-01-30T09:43:50;19.73;;;11.82;;
66118;SDS011;52912;48.564;9.302;2024-01-30T09:46:16;10.70;;;6.88;;
66118;SDS011;52912;48.564;9.302;2024-01-30T09:48:42;17.77;;;8.57;;
66118;SDS011;52912;48.564;9.302;2024-01-30T09:51:08;13.82;;;7.93;;
66118;SDS011;52912;48.564;9.302;2024-01-30T09:53:34;15.57;;;8.05;;
66118;SDS011;52912;48.564;9.302;2024-01-30T09:56:01;15.23;;;7.80;;
66118;SDS011;52912;48.564;9.302;2024-01-30T09:58:27;13.45;;;7.45;;
66118;SDS011;52912;48.564;9.302;2024-01-30T10:00:54;11.77;;;6.43;;
66118;SDS011;52912;48.564;9.302;2024-01-30T10:03:20;20.40;;;8.32;;
66118;SDS011;52912;48.564;9.302;2024-01-30T10:05:46;13.35;;;8.23;;
66118;SDS011;52912;48.564;9.302;2024-01-30T10:08:16;14.65;;;7.70;;
66118;SDS011;52912;48.564;9.302;2024-01-30T10:10:42;15.40;;;7.85;;
66118;SDS011;52912;48.564;9.302;2024-01-30T10:13:10;13.13;;;8.87;;
66118;SDS011;52912;48.564;9.302;2024-01-30T10:15:36;12.55;;;7.88;;
66118;SDS011;52912;48.564;9.302;2024-01-30T10:18:04;15.07;;;8.63;;
66118;SDS011;52912;48.564;9.302;2024-01-30T10:20:30;16.00;;;8.82;;
66118;SDS011;52912;48.564;9.302;2024-01-30T10:22:55;14.63;;;8.32;;
66118;SDS011;52912;48.564;9.302;2024-01-30T10:25:21;9.90;;;6.70;;
66118;SDS011;52912;48.564;9.302;2024-01-30T10:27:47;15.18;;;8.90;;
66118;SDS011;52912;48.564;9.302;2024-01-30T10:30:17;22.10;;;9.07;;
66118;SDS011;52912;48.564;9.302;2024-01-30T10:32:43;17.75;;;10.30;;
66118;SDS011;52912;48.564;9.302;2024-01-30T10:35:09;17.60;;;9.68;;
66118;SDS011;52912;48.564;9.302;2024-01-30T10:37:35;19.45;;;9.63;;
66118;SDS011;52912;48.564;9.302;2024-01-30T10:40:02;18.20;;;9.90;;
66118;SDS011;52912;48.564;9.302;2024-01-30T10:42:28;17.63;;;9.82;;
66118;SDS011;52912;48.564;9.302;2024-01-30T10:45:00;20.73;;;9.55;;
66118;SDS011;52912;48.564;9.302;2024-01-30T10:47:30;18.42;;;9.35;;
66118;SDS011;52912;48.564;9.302;2024-01-30T10:49:59;15.88;;;8.80;;
66118;SDS011;52912;48.564;9.302;2024-01-30T10:52:26;15.73;;;8.45;;
66118;SDS011;52912;48.564;9.302;2024-01-30T10:54:51;15.98;;;7.68;;
66118;SDS011;52912;48.564;9.302;2024-01-30T10:57:18;10.95;;;6.47;;
66118;SDS011;52912;48.564;9.302;2024-01-30T10:59:44;14.27;;;7.97;;
66118;SDS011;52912;48.564;9.302;2024-01-30T11:02:10;13.05;;;6.75;;
66118;SDS011;52912;48.564;9.302;2024-01-30T11:04:36;14.02;;;6.47;;
66118;SDS011;52912;48.564;9.302;2024-01-30T11:07:02;14.90;;;6.78;;
66118;SDS011;52912;48.564;9.302;2024-01-30T11:09:29;14.35;;;5.82;;
66118;SDS011;52912;48.564;9.302;2024-01-30T11:11:56;9.55;;;5.07;;
66118;SDS011;52912;48.564;9.302;2024-01-30T11:14:22;12.43;;;5.43;;
66118;SDS011;52912;48.564;9.302;2024-01-30T11:16:48;10.82;;;5.30;;
66118;SDS011;52912;48.564;9.302;2024-01-30T11:19:14;16.80;;;8.65;;
66118;SDS011;52912;48.564;9.302;2024-01-30T11:21:41;11.77;;;5.78;;
66118;SDS011;52912;48.564;9.302;2024-01-30T11:24:07;10.45;;;5.40;;
66118;SDS011;52912;48.564;9.302;2024-01-30T11:26:34;10.43;;;5.13;;
66118;SDS011;52912;48.564;9.302;2024-01-30T11:29:02;13.50;;;5.30;;
66118;SDS011;52912;48.564;9.302;2024-01-30T11:31:28;11.63;;;6.43;;
66118;SDS011;52912;48.564;9.302;2024-01-30T11:33:54;58.20;;;22.60;;
66118;SDS011;52912;48.564;9.302;2024-01-30T11:36:21;32.47;;;13.52;;
66118;SDS011;52912;48.564;9.302;2024-01-30T11:38:50;52.58;;;17.30;;
66118;SDS011;52912;48.564;9.302;2024-01-30T11:41:15;39.38;;;13.52;;
66118;SDS011;52912;48.564;9.302;2024-01-30T11:43:42;37.45;;;13.05;;
66118;SDS011;52912;48.564;9.302;2024-01-30T11:46:08;43.30;;;17.88;;
66118;SDS011;52912;48.564;9.302;2024-01-30T11:48:33;21.42;;;12.20;;
66118;SDS011;52912;48.564;9.302;2024-01-30T11:50:59;15.32;;;8.13;;
66118;SDS011;52912;48.564;9.302;2024-01-30T11:53:25;12.57;;;5.60;;
66118;SDS011;52912;48.564;9.302;2024-01-30T11:55:50;8.38;;;5.07;;
66118;SDS011;52912;48.564;9.302;2024-01-30T11:58:16;12.48;;;6.80;;
66118;SDS011;52912;48.564;9.302;2024-01-30T12:00:43;12.07;;;6.97;;
66118;SDS011;52912;48.564;9.302;2024-01-30T12:03:17;14.10;;;9.07;;
66118;SDS011;52912;48.564;9.302;2024-01-30T12:05:42;18.90;;;12.43;;
66118;SDS011;52912;48.564;9.302;2024-01-30T12:08:13;9.48;;;4.95;;
66118;SDS011;52912;48.564;9.302;2024-01-30T12:10:39;15.15;;;5.45;;
66118;SDS011;52912;48.564;9.302;2024-01-30T12:13:05;13.25;;;7.28;;
66118;SDS011;52912;48.564;9.302;2024-01-30T12:15:30;7.60;;;4.30;;
66118;SDS011;52912;48.564;9.302;2024-01-30T12:18:05;9.85;;;5.97;;
66118;SDS011;52912;48.564;9.302;2024-01-30T12:20:31;7.25;;;4.25;;
66118;SDS011;52912;48.564;9.302;2024-01-30T12:22:56;11.05;;;4.00;;
66118;SDS011;52912;48.564;9.302;2024-01-30T12:25:22;8.10;;;4.15;;
66118;SDS011;52912;48.564;9.302;2024-01-30T12:27:48;6.45;;;3.85;;
66118;SDS011;52912;48.564;9.302;2024-01-30T12:30:14;6.60;;;3.70;;
66118;SDS011;52912;48.564;9.302;2024-01-30T12:32:41;7.65;;;4.20;;
66118;SDS011;52912;48.564;9.302;2024-01-30T12:35:09;7.30;;;4.10;;
66118;SDS011;52912;48.564;9.302;2024-01-30T12:37:35;7.57;;;4.20;;
66118;SDS011;52912;48.564;9.302;2024-01-30T12:40:01;6.85;;;4.10;;
66118;SDS011;52912;48.564;9.302;2024-01-30T12:42:26;6.35;;;3.90;;
66118;SDS011;52912;48.564;9.302;2024-01-30T12:44:52;7.68;;;3.97;;
66118;SDS011;52912;48.564;9.302;2024-01-30T12:47:17;6.88;;;3.72;;
66118;SDS011;52912;48.564;9.302;2024-01-30T12:49:43;8.73;;;4.80;;
66118;SDS011;52912;48.564;9.302;2024-01-30T12:52:09;8.13;;;4.68;;
66118;SDS011;52912;48.564;9.302;2024-01-30T12:54:35;11.27;;;5.18;;
66118;SDS011;52912;48.564;9.302;2024-01-30T12:57:01;6.70;;;4.30;;
66118;SDS011;52912;48.564;9.302;2024-01-30T12:59:26;12.70;;;4.75;;
66118;SDS011;52912;48.564;9.302;2024-01-30T13:01:52;9.07;;;4.30;;
66118;SDS011;52912;48.564;9.302;2024-01-30T13:04:17;7.78;;;4.70;;
66118;SDS011;52912;48.564;9.302;2024-01-30T13:06:42;9.27;;;4.30;;
66118;SDS011;52912;48.564;9.302;2024-01-30T13:09:09;8.40;;;4.03;;
66118;SDS011;52912;48.564;9.302;2024-01-30T13:11:35;9.05;;;4.00;;
66118;SDS011;52912;48.564;9.302;2024-01-30T13:14:00;8.57;;;4.55;;
66118;SDS011;52912;48.564;9.302;2024-01-30T13:16:26;9.48;;;4.68;;
66118;SDS011;52912;48.564;9.302;2024-01-30T13:18:51;7.45;;;4.53;;
66118;SDS011;52912;48.564;9.302;2024-01-30T13:21:16;8.52;;;4.05;;
66118;SDS011;52912;48.564;9.302;2024-01-30T13:23:42;10.70;;;4.85;;
66118;SDS011;52912;48.564;9.302;2024-01-30T13:26:09;8.07;;;4.15;;
66118;SDS011;52912;48.564;9.302;2024-01-30T13:28:34;6.90;;;3.95;;
66118;SDS011;52912;48.564;9.302;2024-01-30T13:31:00;6.20;;;4.00;;
66118;SDS011;52912;48.564;9.302;2024-01-30T13:33:25;7.28;;;3.47;;
66118;SDS011;52912;48.564;9.302;2024-01-30T13:35:51;6.25;;;3.60;;
66118;SDS011;52912;48.564;9.302;2024-01-30T13:38:16;5.18;;;3.00;;
66118;SDS011;52912;48.564;9.302;2024-01-30T13:40:42;5.35;;;3.20;;
66118;SDS011;52912;48.564;9.302;2024-01-30T13:43:09;7.43;;;3.50;;
66118;SDS011;52912;48.564;9.302;2024-01-30T13:45:34;6.82;;;3.28;;
66118;SDS011;52912;48.564;9.302;2024-01-30T13:48:00;6.88;;;3.40;;
66118;SDS011;52912;48.564;9.302;2024-01-30T13:50:25;4.60;;;2.85;;
66118;SDS011;52912;48.564;9.302;2024-01-30T13:52:50;5.43;;;3.20;;
66118;SDS011;52912;48.564;9.302;2024-01-30T13:55:16;6.95;;;3.15;;
66118;SDS011;52912;48.564;9.302;2024-01-30T13:57:41;7.85;;;3.72;;
66118;SDS011;52912;48.564;9.302;2024-01-30T14:00:12;6.75;;;3.38;;
66118;SDS011;52912;48.564;9.302;2024-01-30T14:02:38;4.50;;;2.95;;
66118;SDS011;52912;48.564;9.302;2024-01-30T14:05:04;5.80;;;3.03;;
66118;SDS011;52912;48.564;9.302;2024-01-30T14:07:29;5.20;;;2.88;;
66118;SDS011;52912;48.564;9.302;2024-01-30T14:09:55;6.03;;;2.85;;
66118;SDS011;52912;48.564;9.302;2024-01-30T14:12:21;6.40;;;2.90;;
66118;SDS011;52912;48.564;9.302;2024-01-30T14:14:46;4.82;;;2.95;;
66118;SDS011;52912;48.564;9.302;2024-01-30T14:17:13;6.60;;;3.10;;
66118;SDS011;52912;48.564;9.302;2024-01-30T14:19:38;6.95;;;3.40;;
66118;SDS011;52912;48.564;9.302;2024-01-30T14:22:04;8.30;;;3.83;;
66118;SDS011;52912;48.564;9.302;2024-01-30T14:24:29;7.97;;;4.57;;
66118;SDS011;52912;48.564;9.302;2024-01-30T14:26:55;7.93;;;4.90;;
66118;SDS011;52912;48.564;9.302;2024-01-30T14:29:20;8.77;;;4.30;;
66118;SDS011;52912;48.564;9.302;2024-01-30T14:31:46;9.43;;;5.80;;